sensor_id;sensor_type;location;lat;lon;timestamp;pressure;altitude;pressure_sealevel;temperature
67822;BMP180;54434;50.096;20.082;2022-10-16T00:01:48;99086.40;;;12.30
67822;BMP180;54434;50.096;20.082;2022-10-16T00:04:24;99089.80;;;12.30
67822;BMP180;54434;50.096;20.082;2022-10-16T00:07:00;99092.60;;;12.38
67822;BMP180;54434;50.096;20.082;2022-10-16T00:09:45;99102.00;;;12.30
67822;BMP180;54434;50.096;20.082;2022-10-16T00:12:21;99096.40;;;12.30
67822;BMP180;54434;50.096;20.082;2022-10-16T00:14:57;99091.80;;;12.30
67822;BMP180;54434;50.096;20.082;2022-10-16T00:17:33;99086.40;;;12.38
67822;BMP180;54434;50.096;20.082;2022-10-16T00:20:11;99084.80;;;12.40
67822;BMP180;54434;50.096;20.082;2022-10-16T00:22:47;99094.00;;;12.40
67822;BMP180;54434;50.096;20.082;2022-10-16T00:25:23;99094.60;;;12.34
67822;BMP180;54434;50.096;20.082;2022-10-16T00:27:59;99103.00;;;12.36
67822;BMP180;54434;50.096;20.082;2022-10-16T00:30:38;99102.00;;;12.38
67822;BMP180;54434;50.096;20.082;2022-10-16T00:33:14;99102.60;;;12.40
67822;BMP180;54434;50.096;20.082;2022-10-16T00:35:50;99103.20;;;12.40
67822;BMP180;54434;50.096;20.082;2022-10-16T00:38:26;99107.60;;;12.40
67822;BMP180;54434;50.096;20.082;2022-10-16T00:41:02;99113.00;;;12.40
67822;BMP180;54434;50.096;20.082;2022-10-16T00:43:44;99112.00;;;12.40
67822;BMP180;54434;50.096;20.082;2022-10-16T00:46:25;99110.20;;;12.40
67822;BMP180;54434;50.096;20.082;2022-10-16T00:49:10;99111.40;;;12.40
67822;BMP180;54434;50.096;20.082;2022-10-16T00:51:49;99117.40;;;12.40
67822;BMP180;54434;50.096;20.082;2022-10-16T00:54:30;99126.40;;;12.40
67822;BMP180;54434;50.096;20.082;2022-10-16T00:57:09;99125.20;;;12.40
67822;BMP180;54434;50.096;20.082;2022-10-16T00:59:45;99122.40;;;12.40
67822;BMP180;54434;50.096;20.082;2022-10-16T01:02:21;99119.80;;;12.40
67822;BMP180;54434;50.096;20.082;2022-10-16T01:04:58;99119.60;;;12.38
67822;BMP180;54434;50.096;20.082;2022-10-16T01:07:49;99122.00;;;12.40
67822;BMP180;54434;50.096;20.082;2022-10-16T01:10:38;99121.80;;;12.40
67822;BMP180;54434;50.096;20.082;2022-10-16T01:13:21;99127.80;;;12.40
67822;BMP180;54434;50.096;20.082;2022-10-16T01:16:07;99129.40;;;12.30
67822;BMP180;54434;50.096;20.082;2022-10-16T01:18:54;99134.40;;;12.30
67822;BMP180;54434;50.096;20.082;2022-10-16T01:21:38;99129.40;;;12.30
67822;BMP180;54434;50.096;20.082;2022-10-16T01:24:36;99129.60;;;12.30
67822;BMP180;54434;50.096;20.082;2022-10-16T01:27:19;99126.20;;;12.30
67822;BMP180;54434;50.096;20.082;2022-10-16T01:30:04;99123.80;;;12.36
67822;BMP180;54434;50.096;20.082;2022-10-16T01:32:49;99123.60;;;12.34
67822;BMP180;54434;50.096;20.082;2022-10-16T01:35:32;99120.60;;;12.32
67822;BMP180;54434;50.096;20.082;2022-10-16T01:38:14;99123.00;;;12.38
67822;BMP180;54434;50.096;20.082;2022-10-16T01:40:57;99125.80;;;12.40
67822;BMP180;54434;50.096;20.082;2022-10-16T01:43:40;99130.20;;;12.40
67822;BMP180;54434;50.096;20.082;2022-10-16T01:46:21;99134.20;;;12.40
67822;BMP180;54434;50.096;20.082;2022-10-16T01:48:59;99139.80;;;12.40
67822;BMP180;54434;50.096;20.082;2022-10-16T01:51:38;99136.00;;;12.40
67822;BMP180;54434;50.096;20.082;2022-10-16T01:54:18;99139.80;;;12.40
67822;BMP180;54434;50.096;20.082;2022-10-16T01:56:56;99142.40;;;12.40
67822;BMP180;54434;50.096;20.082;2022-10-16T01:59:39;99139.40;;;12.40
67822;BMP180;54434;50.096;20.082;2022-10-16T02:02:18;99143.40;;;12.44
67822;BMP180;54434;50.096;20.082;2022-10-16T02:05:02;99142.60;;;12.44
67822;BMP180;54434;50.096;20.082;2022-10-16T02:07:38;99147.80;;;12.50
67822;BMP180;54434;50.096;20.082;2022-10-16T02:10:17;99147.40;;;12.50
67822;BMP180;54434;50.096;20.082;2022-10-16T02:13:01;99147.00;;;12.50
67822;BMP180;54434;50.096;20.082;2022-10-16T02:15:39;99148.60;;;12.50
67822;BMP180;54434;50.096;20.082;2022-10-16T02:18:15;99146.60;;;12.40
67822;BMP180;54434;50.096;20.082;2022-10-16T02:20:59;99144.60;;;12.40
67822;BMP180;54434;50.096;20.082;2022-10-16T02:23:45;99146.80;;;12.40
67822;BMP180;54434;50.096;20.082;2022-10-16T02:26:35;99142.80;;;12.40
67822;BMP180;54434;50.096;20.082;2022-10-16T02:29:17;99140.60;;;12.40
67822;BMP180;54434;50.096;20.082;2022-10-16T02:31:58;99140.20;;;12.40
67822;BMP180;54434;50.096;20.082;2022-10-16T02:34:37;99146.20;;;12.40
67822;BMP180;54434;50.096;20.082;2022-10-16T02:37:16;99148.60;;;12.40
67822;BMP180;54434;50.096;20.082;2022-10-16T02:39:54;99145.00;;;12.40
67822;BMP180;54434;50.096;20.082;2022-10-16T02:42:38;99147.00;;;12.40
67822;BMP180;54434;50.096;20.082;2022-10-16T02:45:15;99147.60;;;12.40
67822;BMP180;54434;50.096;20.082;2022-10-16T02:47:51;99145.40;;;12.40
67822;BMP180;54434;50.096;20.082;2022-10-16T02:50:27;99149.80;;;12.40
67822;BMP180;54434;50.096;20.082;2022-10-16T02:53:03;99150.20;;;12.40
67822;BMP180;54434;50.096;20.082;2022-10-16T02:55:38;99147.80;;;12.40
67822;BMP180;54434;50.096;20.082;2022-10-16T02:58:14;99146.20;;;12.40
67822;BMP180;54434;50.096;20.082;2022-10-16T03:00:50;99150.00;;;12.40
67822;BMP180;54434;50.096;20.082;2022-10-16T03:03:26;99150.00;;;12.40
67822;BMP180;54434;50.096;20.082;2022-10-16T03:06:02;99148.80;;;12.34
67822;BMP180;54434;50.096;20.082;2022-10-16T03:08:38;99149.00;;;12.36
67822;BMP180;54434;50.096;20.082;2022-10-16T03:11:14;99148.00;;;12.30
67822;BMP180;54434;50.096;20.082;2022-10-16T03:13:50;99152.40;;;12.30
67822;BMP180;54434;50.096;20.082;2022-10-16T03:16:26;99155.20;;;12.30
67822;BMP180;54434;50.096;20.082;2022-10-16T03:19:01;99153.60;;;12.30
67822;BMP180;54434;50.096;20.082;2022-10-16T03:21:37;99153.80;;;12.30
67822;BMP180;54434;50.096;20.082;2022-10-16T03:24:14;99151.40;;;12.28
67822;BMP180;54434;50.096;20.082;2022-10-16T03:26:50;99147.20;;;12.20
67822;BMP180;54434;50.096;20.082;2022-10-16T03:29:25;99148.20;;;12.20
67822;BMP180;54434;50.096;20.082;2022-10-16T03:32:04;99148.20;;;12.20
67822;BMP180;54434;50.096;20.082;2022-10-16T03:34:40;99152.60;;;12.14
67822;BMP180;54434;50.096;20.082;2022-10-16T03:37:16;99158.40;;;12.14
67822;BMP180;54434;50.096;20.082;2022-10-16T03:39:53;99162.00;;;12.10
67822;BMP180;54434;50.096;20.082;2022-10-16T03:42:29;99167.60;;;12.12
67822;BMP180;54434;50.096;20.082;2022-10-16T03:45:06;99170.80;;;12.10
67822;BMP180;54434;50.096;20.082;2022-10-16T03:47:42;99173.60;;;12.10
67822;BMP180;54434;50.096;20.082;2022-10-16T03:50:18;99176.60;;;12.10
67822;BMP180;54434;50.096;20.082;2022-10-16T03:52:54;99183.40;;;12.10
67822;BMP180;54434;50.096;20.082;2022-10-16T03:55:30;99180.20;;;12.10
67822;BMP180;54434;50.096;20.082;2022-10-16T03:58:06;99182.80;;;12.06
67822;BMP180;54434;50.096;20.082;2022-10-16T04:00:45;99194.60;;;12.00
67822;BMP180;54434;50.096;20.082;2022-10-16T04:03:22;99190.80;;;12.00
67822;BMP180;54434;50.096;20.082;2022-10-16T04:05:58;99198.80;;;12.00
67822;BMP180;54434;50.096;20.082;2022-10-16T04:08:34;99202.80;;;12.00
67822;BMP180;54434;50.096;20.082;2022-10-16T04:11:11;99205.80;;;12.00
67822;BMP180;54434;50.096;20.082;2022-10-16T04:13:47;99204.80;;;12.00
67822;BMP180;54434;50.096;20.082;2022-10-16T04:16:23;99208.00;;;12.00
67822;BMP180;54434;50.096;20.082;2022-10-16T04:18:59;99208.00;;;12.00
67822;BMP180;54434;50.096;20.082;2022-10-16T04:21:36;99205.20;;;11.92
67822;BMP180;54434;50.096;20.082;2022-10-16T04:24:12;99207.60;;;12.00
67822;BMP180;54434;50.096;20.082;2022-10-16T04:26:47;99207.00;;;12.00
67822;BMP180;54434;50.096;20.082;2022-10-16T04:29:24;99208.20;;;12.00
67822;BMP180;54434;50.096;20.082;2022-10-16T04:31:59;99205.80;;;12.00
67822;BMP180;54434;50.096;20.082;2022-10-16T04:34:35;99208.00;;;12.00
67822;BMP180;54434;50.096;20.082;2022-10-16T04:37:12;99209.20;;;12.00
67822;BMP180;54434;50.096;20.082;2022-10-16T04:39:48;99209.80;;;12.00
67822;BMP180;54434;50.096;20.082;2022-10-16T04:42:24;99209.60;;;12.00
67822;BMP180;54434;50.096;20.082;2022-10-16T04:45:00;99210.60;;;12.00
67822;BMP180;54434;50.096;20.082;2022-10-16T04:47:36;99212.20;;;12.00
67822;BMP180;54434;50.096;20.082;2022-10-16T04:50:12;99211.40;;;12.00
67822;BMP180;54434;50.096;20.082;2022-10-16T04:53:05;99213.00;;;12.00
67822;BMP180;54434;50.096;20.082;2022-10-16T04:55:42;99213.60;;;12.00
67822;BMP180;54434;50.096;20.082;2022-10-16T04:58:18;99213.80;;;12.00
67822;BMP180;54434;50.096;20.082;2022-10-16T05:00:54;99216.60;;;11.98
67822;BMP180;54434;50.096;20.082;2022-10-16T05:03:30;99214.40;;;11.90
67822;BMP180;54434;50.096;20.082;2022-10-16T05:06:07;99219.60;;;11.90
67822;BMP180;54434;50.096;20.082;2022-10-16T05:08:43;99225.80;;;11.90
67822;BMP180;54434;50.096;20.082;2022-10-16T05:11:19;99224.80;;;11.80
67822;BMP180;54434;50.096;20.082;2022-10-16T05:13:55;99228.00;;;11.80
67822;BMP180;54434;50.096;20.082;2022-10-16T05:16:32;99226.40;;;11.72
67822;BMP180;54434;50.096;20.082;2022-10-16T05:19:08;99221.00;;;11.70
67822;BMP180;54434;50.096;20.082;2022-10-16T05:22:01;99222.80;;;11.60
67822;BMP180;54434;50.096;20.082;2022-10-16T05:24:37;99215.40;;;11.60
67822;BMP180;54434;50.096;20.082;2022-10-16T05:27:14;99217.60;;;11.60
67822;BMP180;54434;50.096;20.082;2022-10-16T05:29:53;99215.20;;;11.60
67822;BMP180;54434;50.096;20.082;2022-10-16T05:32:29;99218.20;;;11.60
67822;BMP180;54434;50.096;20.082;2022-10-16T05:35:06;99227.60;;;11.60
67822;BMP180;54434;50.096;20.082;2022-10-16T05:37:46;99232.00;;;11.60
67822;BMP180;54434;50.096;20.082;2022-10-16T05:40:22;99235.00;;;11.60
67822;BMP180;54434;50.096;20.082;2022-10-16T05:43:00;99239.80;;;11.60
67822;BMP180;54434;50.096;20.082;2022-10-16T05:45:36;99241.60;;;11.62
67822;BMP180;54434;50.096;20.082;2022-10-16T05:48:12;99239.80;;;11.70
67822;BMP180;54434;50.096;20.082;2022-10-16T05:50:48;99241.80;;;11.74
67822;BMP180;54434;50.096;20.082;2022-10-16T05:53:24;99245.20;;;11.80
67822;BMP180;54434;50.096;20.082;2022-10-16T05:56:01;99244.40;;;11.90
67822;BMP180;54434;50.096;20.082;2022-10-16T05:58:39;99237.60;;;11.90
67822;BMP180;54434;50.096;20.082;2022-10-16T06:01:18;99240.00;;;12.00
67822;BMP180;54434;50.096;20.082;2022-10-16T06:03:56;99243.40;;;12.10
67822;BMP180;54434;50.096;20.082;2022-10-16T06:06:32;99237.80;;;12.20
67822;BMP180;54434;50.096;20.082;2022-10-16T06:09:08;99242.40;;;12.28
67822;BMP180;54434;50.096;20.082;2022-10-16T06:11:44;99248.20;;;12.30
67822;BMP180;54434;50.096;20.082;2022-10-16T06:14:21;99250.80;;;12.40
67822;BMP180;54434;50.096;20.082;2022-10-16T06:16:57;99256.80;;;12.50
67822;BMP180;54434;50.096;20.082;2022-10-16T06:19:32;99260.20;;;12.60
67822;BMP180;54434;50.096;20.082;2022-10-16T06:22:09;99262.80;;;12.66
67822;BMP180;54434;50.096;20.082;2022-10-16T06:24:45;99276.00;;;12.78
67822;BMP180;54434;50.096;20.082;2022-10-16T06:27:22;99280.60;;;12.88
67822;BMP180;54434;50.096;20.082;2022-10-16T06:29:58;99282.00;;;13.00
67822;BMP180;54434;50.096;20.082;2022-10-16T06:32:34;99287.40;;;13.10
67822;BMP180;54434;50.096;20.082;2022-10-16T06:35:10;99286.20;;;13.20
67822;BMP180;54434;50.096;20.082;2022-10-16T06:37:46;99284.80;;;13.36
67822;BMP180;54434;50.096;20.082;2022-10-16T06:40:22;99295.40;;;13.50
67822;BMP180;54434;50.096;20.082;2022-10-16T06:43:00;99304.80;;;13.66
67822;BMP180;54434;50.096;20.082;2022-10-16T06:45:36;99310.20;;;13.90
67822;BMP180;54434;50.096;20.082;2022-10-16T06:48:12;99317.00;;;14.20
67822;BMP180;54434;50.096;20.082;2022-10-16T06:50:58;99316.00;;;14.54
67822;BMP180;54434;50.096;20.082;2022-10-16T06:53:39;99321.60;;;14.90
67822;BMP180;54434;50.096;20.082;2022-10-16T06:56:36;99327.60;;;15.32
67822;BMP180;54434;50.096;20.082;2022-10-16T06:59:12;99336.40;;;15.80
67822;BMP180;54434;50.096;20.082;2022-10-16T07:01:48;99337.60;;;16.24
67822;BMP180;54434;50.096;20.082;2022-10-16T07:04:24;99342.40;;;16.54
67822;BMP180;54434;50.096;20.082;2022-10-16T07:07:01;99339.60;;;16.78
67822;BMP180;54434;50.096;20.082;2022-10-16T07:09:42;99342.80;;;16.90
67822;BMP180;54434;50.096;20.082;2022-10-16T07:12:18;99341.00;;;17.00
67822;BMP180;54434;50.096;20.082;2022-10-16T07:14:54;99338.60;;;17.16
67822;BMP180;54434;50.096;20.082;2022-10-16T07:17:30;99334.20;;;17.20
67822;BMP180;54434;50.096;20.082;2022-10-16T07:20:09;99337.80;;;17.32
67822;BMP180;54434;50.096;20.082;2022-10-16T07:22:44;99343.00;;;17.50
67822;BMP180;54434;50.096;20.082;2022-10-16T07:25:20;99345.40;;;17.80
67822;BMP180;54434;50.096;20.082;2022-10-16T07:27:56;99351.00;;;18.22
67822;BMP180;54434;50.096;20.082;2022-10-16T07:30:31;99351.20;;;18.70
67822;BMP180;54434;50.096;20.082;2022-10-16T07:33:09;99356.20;;;19.18
67822;BMP180;54434;50.096;20.082;2022-10-16T07:35:54;99357.00;;;19.70
67822;BMP180;54434;50.096;20.082;2022-10-16T07:38:30;99356.80;;;20.26
67822;BMP180;54434;50.096;20.082;2022-10-16T07:41:10;99355.00;;;20.76
67822;BMP180;54434;50.096;20.082;2022-10-16T07:43:51;99352.80;;;21.04
67822;BMP180;54434;50.096;20.082;2022-10-16T07:46:27;99355.00;;;21.30
67822;BMP180;54434;50.096;20.082;2022-10-16T07:49:03;99356.40;;;21.50
67822;BMP180;54434;50.096;20.082;2022-10-16T07:51:39;99353.60;;;21.74
67822;BMP180;54434;50.096;20.082;2022-10-16T07:54:15;99357.20;;;21.98
67822;BMP180;54434;50.096;20.082;2022-10-16T07:56:51;99356.20;;;22.10
67822;BMP180;54434;50.096;20.082;2022-10-16T07:59:26;99359.80;;;22.20
67822;BMP180;54434;50.096;20.082;2022-10-16T08:02:02;99365.60;;;22.20
67822;BMP180;54434;50.096;20.082;2022-10-16T08:04:38;99363.40;;;22.22
67822;BMP180;54434;50.096;20.082;2022-10-16T08:07:14;99363.40;;;22.20
67822;BMP180;54434;50.096;20.082;2022-10-16T08:09:53;99368.60;;;22.10
67822;BMP180;54434;50.096;20.082;2022-10-16T08:12:31;99372.60;;;22.00
67822;BMP180;54434;50.096;20.082;2022-10-16T08:15:10;99377.20;;;21.90
67822;BMP180;54434;50.096;20.082;2022-10-16T08:17:55;99373.00;;;21.84
67822;BMP180;54434;50.096;20.082;2022-10-16T08:20:35;99376.20;;;21.72
67822;BMP180;54434;50.096;20.082;2022-10-16T08:23:12;99381.20;;;21.60
67822;BMP180;54434;50.096;20.082;2022-10-16T08:25:48;99383.80;;;21.50
67822;BMP180;54434;50.096;20.082;2022-10-16T08:28:24;99379.80;;;21.40
67822;BMP180;54434;50.096;20.082;2022-10-16T08:31:09;99382.20;;;21.30
67822;BMP180;54434;50.096;20.082;2022-10-16T08:33:47;99385.20;;;21.30
67822;BMP180;54434;50.096;20.082;2022-10-16T08:36:22;99386.40;;;21.20
67822;BMP180;54434;50.096;20.082;2022-10-16T08:38:58;99386.40;;;21.18
67822;BMP180;54434;50.096;20.082;2022-10-16T08:42:21;99389.40;;;21.12
67822;BMP180;54434;50.096;20.082;2022-10-16T08:45:31;99389.40;;;21.20
67822;BMP180;54434;50.096;20.082;2022-10-16T08:48:25;99395.00;;;21.20
67822;BMP180;54434;50.096;20.082;2022-10-16T08:51:07;99396.00;;;21.20
67822;BMP180;54434;50.096;20.082;2022-10-16T08:53:51;99398.60;;;21.20
67822;BMP180;54434;50.096;20.082;2022-10-16T08:56:28;99402.00;;;21.28
67822;BMP180;54434;50.096;20.082;2022-10-16T08:59:09;99401.60;;;21.30
67822;BMP180;54434;50.096;20.082;2022-10-16T09:01:46;99403.00;;;21.30
67822;BMP180;54434;50.096;20.082;2022-10-16T09:05:00;99403.80;;;21.40
67822;BMP180;54434;50.096;20.082;2022-10-16T09:07:52;99402.20;;;21.42
67822;BMP180;54434;50.096;20.082;2022-10-16T09:10:46;99403.00;;;21.60
67822;BMP180;54434;50.096;20.082;2022-10-16T09:13:32;99405.20;;;21.80
67822;BMP180;54434;50.096;20.082;2022-10-16T09:16:24;99409.00;;;21.90
67822;BMP180;54434;50.096;20.082;2022-10-16T09:19:16;99414.00;;;21.90
67822;BMP180;54434;50.096;20.082;2022-10-16T09:21:55;99413.40;;;22.00
67822;BMP180;54434;50.096;20.082;2022-10-16T09:24:33;99413.20;;;22.10
67822;BMP180;54434;50.096;20.082;2022-10-16T09:27:13;99415.80;;;22.10
67822;BMP180;54434;50.096;20.082;2022-10-16T09:29:50;99417.40;;;22.10
67822;BMP180;54434;50.096;20.082;2022-10-16T09:32:34;99422.20;;;22.10
67822;BMP180;54434;50.096;20.082;2022-10-16T09:35:19;99424.40;;;22.00
67822;BMP180;54434;50.096;20.082;2022-10-16T09:37:57;99416.80;;;21.90
67822;BMP180;54434;50.096;20.082;2022-10-16T09:40:37;99420.60;;;21.80
67822;BMP180;54434;50.096;20.082;2022-10-16T09:43:26;99424.00;;;21.80
67822;BMP180;54434;50.096;20.082;2022-10-16T09:46:08;99426.20;;;21.80
67822;BMP180;54434;50.096;20.082;2022-10-16T09:48:53;99425.00;;;21.80
67822;BMP180;54434;50.096;20.082;2022-10-16T09:51:33;99427.20;;;21.80
67822;BMP180;54434;50.096;20.082;2022-10-16T09:54:20;99431.60;;;21.80
67822;BMP180;54434;50.096;20.082;2022-10-16T09:57:10;99429.60;;;21.70
67822;BMP180;54434;50.096;20.082;2022-10-16T09:59:53;99428.80;;;21.70
67822;BMP180;54434;50.096;20.082;2022-10-16T10:02:36;99427.80;;;21.70
67822;BMP180;54434;50.096;20.082;2022-10-16T10:05:26;99425.20;;;21.60
67822;BMP180;54434;50.096;20.082;2022-10-16T10:08:04;99424.80;;;21.60
67822;BMP180;54434;50.096;20.082;2022-10-16T10:10:44;99429.00;;;21.70
67822;BMP180;54434;50.096;20.082;2022-10-16T10:13:26;99430.40;;;21.70
67822;BMP180;54434;50.096;20.082;2022-10-16T10:16:02;99436.00;;;21.70
67822;BMP180;54434;50.096;20.082;2022-10-16T10:18:38;99432.20;;;21.70
67822;BMP180;54434;50.096;20.082;2022-10-16T10:21:18;99438.00;;;21.70
67822;BMP180;54434;50.096;20.082;2022-10-16T10:24:00;99442.00;;;21.70
67822;BMP180;54434;50.096;20.082;2022-10-16T10:26:36;99431.00;;;21.70
67822;BMP180;54434;50.096;20.082;2022-10-16T10:29:30;99431.80;;;21.70
67822;BMP180;54434;50.096;20.082;2022-10-16T10:32:30;99436.00;;;21.80
67822;BMP180;54434;50.096;20.082;2022-10-16T10:35:22;99431.80;;;21.80
67822;BMP180;54434;50.096;20.082;2022-10-16T10:38:27;99435.00;;;21.80
67822;BMP180;54434;50.096;20.082;2022-10-16T10:41:32;99433.00;;;21.80
67822;BMP180;54434;50.096;20.082;2022-10-16T10:44:25;99431.60;;;21.82
67822;BMP180;54434;50.096;20.082;2022-10-16T10:47:22;99432.20;;;21.90
67822;BMP180;54434;50.096;20.082;2022-10-16T10:50:16;99427.00;;;22.00
67822;BMP180;54434;50.096;20.082;2022-10-16T10:53:09;99428.40;;;22.08
67822;BMP180;54434;50.096;20.082;2022-10-16T10:56:02;99423.20;;;22.10
67822;BMP180;54434;50.096;20.082;2022-10-16T10:59:30;99427.00;;;22.16
67822;BMP180;54434;50.096;20.082;2022-10-16T11:02:18;99418.20;;;22.22
67822;BMP180;54434;50.096;20.082;2022-10-16T11:05:43;99420.80;;;22.30
67822;BMP180;54434;50.096;20.082;2022-10-16T11:08:27;99420.80;;;22.40
67822;BMP180;54434;50.096;20.082;2022-10-16T11:11:10;99420.00;;;22.40
67822;BMP180;54434;50.096;20.082;2022-10-16T11:13:59;99417.80;;;22.40
67822;BMP180;54434;50.096;20.082;2022-10-16T11:16:44;99414.60;;;22.40
67822;BMP180;54434;50.096;20.082;2022-10-16T11:19:37;99416.40;;;22.40
67822;BMP180;54434;50.096;20.082;2022-10-16T11:22:22;99421.20;;;22.50
67822;BMP180;54434;50.096;20.082;2022-10-16T11:25:15;99418.00;;;22.50
67822;BMP180;54434;50.096;20.082;2022-10-16T11:27:55;99417.00;;;22.50
67822;BMP180;54434;50.096;20.082;2022-10-16T11:30:41;99418.00;;;22.52
67822;BMP180;54434;50.096;20.082;2022-10-16T11:33:39;99415.00;;;22.60
67822;BMP180;54434;50.096;20.082;2022-10-16T11:36:25;99413.80;;;22.60
67822;BMP180;54434;50.096;20.082;2022-10-16T11:39:16;99414.20;;;22.62
67822;BMP180;54434;50.096;20.082;2022-10-16T11:41:55;99415.60;;;22.70
67822;BMP180;54434;50.096;20.082;2022-10-16T11:44:53;99413.00;;;22.70
67822;BMP180;54434;50.096;20.082;2022-10-16T11:47:36;99417.80;;;22.78
67822;BMP180;54434;50.096;20.082;2022-10-16T11:50:40;99416.60;;;22.70
67822;BMP180;54434;50.096;20.082;2022-10-16T11:53:37;99415.20;;;22.70
67822;BMP180;54434;50.096;20.082;2022-10-16T11:56:18;99413.40;;;22.70
67822;BMP180;54434;50.096;20.082;2022-10-16T11:59:04;99411.80;;;22.60
67822;BMP180;54434;50.096;20.082;2022-10-16T12:01:47;99413.00;;;22.60
67822;BMP180;54434;50.096;20.082;2022-10-16T12:04:33;99416.00;;;22.60
67822;BMP180;54434;50.096;20.082;2022-10-16T12:07:16;99421.20;;;22.50
67822;BMP180;54434;50.096;20.082;2022-10-16T12:09:54;99420.00;;;22.50
67822;BMP180;54434;50.096;20.082;2022-10-16T12:12:42;99422.20;;;22.40
67822;BMP180;54434;50.096;20.082;2022-10-16T12:15:27;99422.40;;;22.40
67822;BMP180;54434;50.096;20.082;2022-10-16T12:18:27;99420.60;;;22.40
67822;BMP180;54434;50.096;20.082;2022-10-16T12:21:04;99419.80;;;22.40
67822;BMP180;54434;50.096;20.082;2022-10-16T12:23:51;99423.00;;;22.30
67822;BMP180;54434;50.096;20.082;2022-10-16T12:26:37;99425.20;;;22.30
67822;BMP180;54434;50.096;20.082;2022-10-16T12:29:32;99425.20;;;22.30
67822;BMP180;54434;50.096;20.082;2022-10-16T12:32:29;99426.40;;;22.20
67822;BMP180;54434;50.096;20.082;2022-10-16T12:35:27;99423.40;;;22.20
67822;BMP180;54434;50.096;20.082;2022-10-16T12:38:21;99420.00;;;22.20
67822;BMP180;54434;50.096;20.082;2022-10-16T12:41:06;99418.80;;;22.20
67822;BMP180;54434;50.096;20.082;2022-10-16T12:43:46;99422.40;;;22.30
67822;BMP180;54434;50.096;20.082;2022-10-16T12:46:40;99425.20;;;22.40
67822;BMP180;54434;50.096;20.082;2022-10-16T12:49:47;99423.00;;;22.40
67822;BMP180;54434;50.096;20.082;2022-10-16T12:52:40;99423.40;;;22.50
67822;BMP180;54434;50.096;20.082;2022-10-16T12:55:22;99425.20;;;22.50
67822;BMP180;54434;50.096;20.082;2022-10-16T12:58:44;99423.60;;;22.60
67822;BMP180;54434;50.096;20.082;2022-10-16T13:01:46;99427.60;;;22.60
67822;BMP180;54434;50.096;20.082;2022-10-16T13:04:50;99428.00;;;22.60
67822;BMP180;54434;50.096;20.082;2022-10-16T13:07:53;99431.60;;;22.60
67822;BMP180;54434;50.096;20.082;2022-10-16T13:10:42;99438.60;;;22.60
67822;BMP180;54434;50.096;20.082;2022-10-16T13:14:03;99440.60;;;22.60
67822;BMP180;54434;50.096;20.082;2022-10-16T13:16:53;99445.60;;;22.50
67822;BMP180;54434;50.096;20.082;2022-10-16T13:19:41;99442.20;;;22.40
67822;BMP180;54434;50.096;20.082;2022-10-16T13:22:27;99446.40;;;22.40
67822;BMP180;54434;50.096;20.082;2022-10-16T13:25:27;99445.20;;;22.40
67822;BMP180;54434;50.096;20.082;2022-10-16T13:28:10;99447.40;;;22.40
67822;BMP180;54434;50.096;20.082;2022-10-16T13:30:54;99448.20;;;22.30
67822;BMP180;54434;50.096;20.082;2022-10-16T13:33:39;99450.40;;;22.30
67822;BMP180;54434;50.096;20.082;2022-10-16T13:36:27;99454.00;;;22.30
67822;BMP180;54434;50.096;20.082;2022-10-16T13:39:15;99451.80;;;22.20
67822;BMP180;54434;50.096;20.082;2022-10-16T13:42:14;99455.20;;;22.10
67822;BMP180;54434;50.096;20.082;2022-10-16T13:44:54;99457.80;;;22.08
67822;BMP180;54434;50.096;20.082;2022-10-16T13:47:32;99461.60;;;22.00
67822;BMP180;54434;50.096;20.082;2022-10-16T13:50:14;99461.00;;;21.90
67822;BMP180;54434;50.096;20.082;2022-10-16T13:52:51;99459.60;;;21.80
67822;BMP180;54434;50.096;20.082;2022-10-16T13:55:28;99462.80;;;21.80
67822;BMP180;54434;50.096;20.082;2022-10-16T13:58:15;99464.40;;;21.70
67822;BMP180;54434;50.096;20.082;2022-10-16T14:01:02;99469.40;;;21.60
67822;BMP180;54434;50.096;20.082;2022-10-16T14:03:40;99474.60;;;21.54
67822;BMP180;54434;50.096;20.082;2022-10-16T14:06:20;99478.00;;;21.50
67822;BMP180;54434;50.096;20.082;2022-10-16T14:09:04;99475.20;;;21.40
67822;BMP180;54434;50.096;20.082;2022-10-16T14:11:51;99477.00;;;21.32
67822;BMP180;54434;50.096;20.082;2022-10-16T14:14:39;99482.00;;;21.30
67822;BMP180;54434;50.096;20.082;2022-10-16T14:17:24;99485.40;;;21.26
67822;BMP180;54434;50.096;20.082;2022-10-16T14:20:05;99484.60;;;21.20
67822;BMP180;54434;50.096;20.082;2022-10-16T14:22:43;99481.80;;;21.14
67822;BMP180;54434;50.096;20.082;2022-10-16T14:25:31;99482.40;;;21.10
67822;BMP180;54434;50.096;20.082;2022-10-16T14:28:19;99476.60;;;21.00
67822;BMP180;54434;50.096;20.082;2022-10-16T14:30:59;99484.00;;;21.00
67822;BMP180;54434;50.096;20.082;2022-10-16T14:33:37;99483.20;;;21.00
67822;BMP180;54434;50.096;20.082;2022-10-16T14:36:17;99481.20;;;20.90
67822;BMP180;54434;50.096;20.082;2022-10-16T14:39:02;99480.20;;;20.88
67822;BMP180;54434;50.096;20.082;2022-10-16T14:41:49;99483.40;;;20.78
67822;BMP180;54434;50.096;20.082;2022-10-16T14:44:31;99480.00;;;20.60
67822;BMP180;54434;50.096;20.082;2022-10-16T14:47:20;99481.00;;;20.50
67822;BMP180;54434;50.096;20.082;2022-10-16T14:50:00;99475.40;;;20.44
67822;BMP180;54434;50.096;20.082;2022-10-16T14:52:35;99473.60;;;20.40
67822;BMP180;54434;50.096;20.082;2022-10-16T14:55:13;99474.40;;;20.30
67822;BMP180;54434;50.096;20.082;2022-10-16T14:57:49;99469.40;;;20.30
67822;BMP180;54434;50.096;20.082;2022-10-16T15:00:30;99467.40;;;20.20
67822;BMP180;54434;50.096;20.082;2022-10-16T15:03:06;99471.60;;;20.10
67822;BMP180;54434;50.096;20.082;2022-10-16T15:05:42;99470.00;;;20.00
67822;BMP180;54434;50.096;20.082;2022-10-16T15:08:19;99472.40;;;19.98
67822;BMP180;54434;50.096;20.082;2022-10-16T15:10:55;99470.00;;;19.90
67822;BMP180;54434;50.096;20.082;2022-10-16T15:13:31;99475.00;;;19.80
67822;BMP180;54434;50.096;20.082;2022-10-16T15:16:09;99475.80;;;19.70
67822;BMP180;54434;50.096;20.082;2022-10-16T15:18:46;99487.80;;;19.60
67822;BMP180;54434;50.096;20.082;2022-10-16T15:21:30;99490.40;;;19.50